createdAt,value
2018-09-30T00:01:11.163Z,39.60
2018-09-30T00:03:39.601Z,40.20
2018-09-30T00:06:07.891Z,39.80
2018-09-30T00:08:36.267Z,39.90
2018-09-30T00:11:04.578Z,39.90
2018-09-30T00:13:32.905Z,40.30
2018-09-30T00:16:01.163Z,40.40
2018-09-30T00:18:29.503Z,40.20
2018-09-30T00:20:57.853Z,40.30
2018-09-30T00:23:26.110Z,40.10
2018-09-30T00:25:59.630Z,40.10
2018-09-30T00:28:27.934Z,39.80
2018-09-30T00:30:56.180Z,39.80
2018-09-30T00:33:24.485Z,40.30
2018-09-30T00:35:52.741Z,40.00
2018-09-30T00:38:21.038Z,39.90
2018-09-30T00:40:49.389Z,40.00
2018-09-30T00:43:17.638Z,40.00
2018-09-30T00:45:45.877Z,39.80
2018-09-30T00:48:14.281Z,40.20
2018-09-30T00:50:42.596Z,40.10
2018-09-30T00:53:11.061Z,40.20
2018-09-30T00:55:39.329Z,40.20
2018-09-30T00:58:08.758Z,40.50
2018-09-30T01:00:37.103Z,40.90
2018-09-30T01:03:05.371Z,40.70
2018-09-30T01:05:33.813Z,41.70
2018-09-30T01:08:02.313Z,41.00
2018-09-30T01:10:33.766Z,41.00
2018-09-30T01:13:02.090Z,41.80
2018-09-30T01:15:30.358Z,42.40
2018-09-30T01:17:58.611Z,42.00
2018-09-30T01:20:26.888Z,42.30
2018-09-30T01:22:55.129Z,42.40
2018-09-30T01:25:23.385Z,42.20
2018-09-30T01:27:51.641Z,41.50
2018-09-30T01:30:19.908Z,41.00
2018-09-30T01:32:54.721Z,42.00
2018-09-30T01:35:22.998Z,42.00
2018-09-30T01:37:51.254Z,42.50
2018-09-30T01:40:19.559Z,42.50
2018-09-30T01:42:48.093Z,42.80
2018-09-30T01:45:16.372Z,42.60
2018-09-30T01:47:44.688Z,42.00
2018-09-30T01:50:13.078Z,42.50
2018-09-30T01:52:48.197Z,43.00
2018-09-30T01:55:16.593Z,43.10
2018-09-30T01:57:44.904Z,44.20
2018-09-30T02:00:13.148Z,44.60
2018-09-30T02:02:41.542Z,44.60
2018-09-30T02:05:10.110Z,44.40
2018-09-30T02:07:38.376Z,44.30
2018-09-30T02:10:06.676Z,44.40
2018-09-30T02:12:34.917Z,44.90
2018-09-30T02:15:03.191Z,44.90
2018-09-30T02:17:31.484Z,45.30
2018-09-30T02:19:59.747Z,45.20
2018-09-30T02:22:29.117Z,44.80
2018-09-30T02:24:57.691Z,45.10
2018-09-30T02:27:26.078Z,45.10
2018-09-30T02:29:54.507Z,44.70
2018-09-30T02:32:23.185Z,44.30
2018-09-30T02:34:51.699Z,44.80
2018-09-30T02:37:20.007Z,44.90
2018-09-30T02:39:48.284Z,45.60
2018-09-30T02:42:16.509Z,45.90
2018-09-30T02:44:45.116Z,46.00
2018-09-30T02:47:13.519Z,45.50
2018-09-30T02:49:41.851Z,45.10
2018-09-30T02:52:10.175Z,44.90
2018-09-30T02:54:38.500Z,45.10
2018-09-30T02:57:06.830Z,44.90
2018-09-30T02:59:35.101Z,44.60
2018-09-30T03:02:03.413Z,44.60
2018-09-30T03:04:31.691Z,45.00
2018-09-30T03:07:05.628Z,45.30
2018-09-30T03:09:33.950Z,45.40
2018-09-30T03:12:02.283Z,45.20
2018-09-30T03:14:30.602Z,45.00
2018-09-30T03:16:59.130Z,45.20
2018-09-30T03:19:27.384Z,45.30
2018-09-30T03:21:55.660Z,45.60
2018-09-30T03:24:23.919Z,46.10
2018-09-30T03:26:52.148Z,46.40
2018-09-30T03:29:20.418Z,46.30
2018-09-30T03:31:48.709Z,46.50
2018-09-30T03:34:17.416Z,46.70
2018-09-30T03:36:45.703Z,46.50
2018-09-30T03:39:14.015Z,46.50
2018-09-30T03:41:42.284Z,46.40
2018-09-30T03:44:10.772Z,46.90
2018-09-30T03:46:39.318Z,47.40
2018-09-30T03:49:07.981Z,47.40
2018-09-30T03:51:36.630Z,47.80
2018-09-30T03:54:04.958Z,48.60
2018-09-30T03:56:33.291Z,49.50
2018-09-30T03:59:01.567Z,50.00
2018-09-30T04:01:29.890Z,49.70
2018-09-30T04:03:58.250Z,49.80
2018-09-30T04:06:26.580Z,50.30
2018-09-30T04:08:54.893Z,50.20
2018-09-30T04:11:23.159Z,50.40
2018-09-30T04:13:51.533Z,51.00
2018-09-30T04:16:19.858Z,51.40
2018-09-30T04:18:48.165Z,51.70
2018-09-30T04:21:16.638Z,52.20
2018-09-30T04:23:44.971Z,51.90
2018-09-30T04:26:13.225Z,51.90
2018-09-30T04:28:41.695Z,52.10
2018-09-30T04:31:10.067Z,52.60
2018-09-30T04:33:38.355Z,53.00
2018-09-30T04:36:06.849Z,53.20
2018-09-30T04:38:35.938Z,53.10
2018-09-30T04:41:04.205Z,52.80
2018-09-30T04:43:32.463Z,52.90
2018-09-30T04:46:00.846Z,52.90
2018-09-30T04:48:29.098Z,52.80
2018-09-30T04:50:57.325Z,53.10
2018-09-30T04:53:25.618Z,53.00
2018-09-30T04:55:53.890Z,53.20
2018-09-30T04:58:22.253Z,53.80
2018-09-30T05:00:50.633Z,52.90
2018-09-30T05:03:19.607Z,52.90
2018-09-30T05:05:47.867Z,53.10
2018-09-30T05:08:16.093Z,53.30
2018-09-30T05:10:44.395Z,53.20
2018-09-30T05:13:12.746Z,53.00
2018-09-30T05:15:41.020Z,53.00
2018-09-30T05:18:09.477Z,53.00
2018-09-30T05:20:37.869Z,53.20
2018-09-30T05:23:06.250Z,53.40
2018-09-30T05:25:34.708Z,53.60
2018-09-30T05:28:03.038Z,53.90
2018-09-30T05:30:31.886Z,54.30
2018-09-30T05:33:00.338Z,54.50
2018-09-30T05:35:28.561Z,54.70
2018-09-30T05:37:56.858Z,54.90
2018-09-30T05:40:25.078Z,54.40
2018-09-30T05:42:53.471Z,54.20
2018-09-30T05:45:21.840Z,54.90
2018-09-30T05:47:50.181Z,54.90
2018-09-30T05:50:18.419Z,55.00
2018-09-30T05:52:46.890Z,54.90
2018-09-30T05:55:15.231Z,55.20
2018-09-30T05:57:43.698Z,54.90
2018-09-30T06:00:12.012Z,54.50
2018-09-30T06:02:40.390Z,54.30
2018-09-30T06:05:08.743Z,53.90
2018-09-30T06:07:37.098Z,53.20
2018-09-30T06:10:05.517Z,53.20
2018-09-30T06:12:33.831Z,53.10
2018-09-30T06:15:02.459Z,52.60
2018-09-30T06:17:30.776Z,52.40
2018-09-30T06:19:59.140Z,52.40
2018-09-30T06:22:27.498Z,51.70
2018-09-30T06:24:55.916Z,52.00
2018-09-30T06:27:24.741Z,51.80
2018-09-30T06:29:53.215Z,51.80
2018-09-30T06:32:21.602Z,51.30
2018-09-30T06:34:49.959Z,51.00
2018-09-30T06:37:18.330Z,50.70
2018-09-30T06:39:46.609Z,49.30
2018-09-30T06:42:14.913Z,49.40
2018-09-30T06:44:43.369Z,49.20
2018-09-30T06:47:11.621Z,48.20
2018-09-30T06:49:40.356Z,48.40
2018-09-30T06:52:08.700Z,47.50
2018-09-30T06:54:37.038Z,47.20
2018-09-30T06:57:05.358Z,46.60
2018-09-30T06:59:34.037Z,45.80
2018-09-30T07:02:02.348Z,45.50
2018-09-30T07:04:30.823Z,45.20
2018-09-30T07:06:59.227Z,44.60
2018-09-30T07:09:27.550Z,43.40
2018-09-30T07:11:55.894Z,41.90
2018-09-30T07:14:24.289Z,42.80
2018-09-30T07:16:52.678Z,41.70
2018-09-30T07:19:20.967Z,42.10
2018-09-30T07:21:49.377Z,41.50
2018-09-30T07:24:17.816Z,40.40
2018-09-30T07:26:46.088Z,40.00
2018-09-30T07:29:14.573Z,39.70
2018-09-30T07:31:43.101Z,38.60
2018-09-30T07:34:11.446Z,37.90
2018-09-30T07:36:39.792Z,38.30
2018-09-30T07:39:09.320Z,37.60
2018-09-30T07:41:37.795Z,37.10
2018-09-30T07:44:06.601Z,36.90
2018-09-30T07:46:35.172Z,36.00
2018-09-30T07:49:03.670Z,36.40
2018-09-30T07:51:31.938Z,36.20
2018-09-30T07:54:00.368Z,34.80
2018-09-30T07:56:28.802Z,35.00
2018-09-30T07:58:57.167Z,34.80
2018-09-30T08:01:25.561Z,34.20
2018-09-30T08:03:54.028Z,33.40
2018-09-30T08:06:22.462Z,33.90
2018-09-30T08:08:51.136Z,33.60
2018-09-30T08:11:20.432Z,32.60
2018-09-30T08:13:48.750Z,32.50
2018-09-30T08:16:17.165Z,32.30
2018-09-30T08:18:52.203Z,32.40
2018-09-30T08:21:20.581Z,32.00
2018-09-30T08:23:48.878Z,31.60
2018-09-30T08:26:17.195Z,31.40
2018-09-30T08:28:45.502Z,31.50
2018-09-30T08:31:13.777Z,31.90
2018-09-30T08:33:42.118Z,31.80
2018-09-30T08:36:11.029Z,31.70
2018-09-30T08:38:41.812Z,32.00
2018-09-30T08:41:12.064Z,32.50
2018-09-30T08:43:41.919Z,32.90
2018-09-30T08:46:10.472Z,32.60
2018-09-30T08:48:38.762Z,32.40
2018-09-30T08:51:07.201Z,32.30
2018-09-30T08:53:35.737Z,32.20
2018-09-30T08:56:04.267Z,32.10
2018-09-30T08:58:38.956Z,32.10
2018-09-30T09:01:07.217Z,31.40
2018-09-30T09:03:35.481Z,31.30
2018-09-30T09:06:03.922Z,31.50
2018-09-30T09:08:32.226Z,32.10
2018-09-30T09:11:01.025Z,32.40
2018-09-30T09:13:29.510Z,32.90
2018-09-30T09:15:57.828Z,32.70
2018-09-30T09:18:26.182Z,32.50
2018-09-30T09:20:54.556Z,33.30
2018-09-30T09:23:22.943Z,33.30
2018-09-30T09:25:51.289Z,33.70
2018-09-30T09:28:19.802Z,33.60
2018-09-30T09:30:48.368Z,34.00
2018-09-30T09:33:16.881Z,33.50
2018-09-30T09:35:45.391Z,33.20
2018-09-30T09:38:13.887Z,32.80
2018-09-30T09:40:42.313Z,32.80
2018-09-30T09:43:10.990Z,32.60
2018-09-30T09:45:39.355Z,32.10
2018-09-30T09:48:07.918Z,32.10
2018-09-30T09:50:37.034Z,32.50
2018-09-30T09:53:05.511Z,32.90
2018-09-30T09:55:33.839Z,33.00
2018-09-30T09:58:02.161Z,33.10
2018-09-30T10:00:30.730Z,33.20
2018-09-30T10:02:59.481Z,33.30
2018-09-30T10:05:27.861Z,33.00
2018-09-30T10:07:56.224Z,33.20
2018-09-30T10:10:24.639Z,33.40
2018-09-30T10:12:52.890Z,33.80
2018-09-30T10:15:21.134Z,33.80
2018-09-30T10:17:49.479Z,34.20
2018-09-30T10:20:17.810Z,34.60
2018-09-30T10:22:46.145Z,34.70
2018-09-30T10:25:14.397Z,34.90
2018-09-30T10:27:42.618Z,35.00
2018-09-30T10:30:10.980Z,35.00
2018-09-30T10:32:39.375Z,34.80
2018-09-30T10:35:07.709Z,34.90
2018-09-30T10:37:36.016Z,35.00
2018-09-30T10:40:04.297Z,34.90
2018-09-30T10:42:32.585Z,35.10
2018-09-30T10:45:01.052Z,34.90
2018-09-30T10:47:29.638Z,35.50
2018-09-30T10:49:58.640Z,35.90
2018-09-30T10:52:26.915Z,36.00
2018-09-30T10:54:55.190Z,36.10
2018-09-30T10:57:23.573Z,36.70
2018-09-30T10:59:51.775Z,37.70
2018-09-30T11:02:20.089Z,36.80
2018-09-30T11:04:48.353Z,37.50
2018-09-30T11:07:16.960Z,37.70
2018-09-30T11:09:45.317Z,38.00
2018-09-30T11:12:13.627Z,38.30
2018-09-30T11:14:41.947Z,38.40
2018-09-30T11:17:10.388Z,38.30
2018-09-30T11:19:38.733Z,39.10
2018-09-30T11:22:07.084Z,38.50
2018-09-30T11:24:35.529Z,39.20
2018-09-30T11:27:04.044Z,38.90
2018-09-30T11:29:32.396Z,39.20
2018-09-30T11:32:00.644Z,39.90
2018-09-30T11:34:28.911Z,39.30
2018-09-30T11:36:57.277Z,39.30
2018-09-30T11:39:25.528Z,39.40
2018-09-30T11:41:53.881Z,38.90
2018-09-30T11:44:22.200Z,38.80
2018-09-30T11:46:50.634Z,38.70
2018-09-30T11:49:18.969Z,38.70
2018-09-30T11:51:47.270Z,38.70
2018-09-30T11:54:21.974Z,39.00
2018-09-30T11:56:50.234Z,38.90
2018-09-30T11:59:18.515Z,38.50
2018-09-30T12:01:46.905Z,38.50
2018-09-30T12:04:15.718Z,38.00
2018-09-30T12:06:44.174Z,39.20
2018-09-30T12:09:12.495Z,38.20
2018-09-30T12:11:40.911Z,38.10
2018-09-30T12:14:09.289Z,38.10
2018-09-30T12:16:37.727Z,38.20
2018-09-30T12:19:06.353Z,38.40
2018-09-30T12:21:34.667Z,38.60
2018-09-30T12:24:03.255Z,38.90
2018-09-30T12:26:31.492Z,39.20
2018-09-30T12:28:59.764Z,39.10
2018-09-30T12:31:28.091Z,39.10
2018-09-30T12:33:56.494Z,39.20
2018-09-30T12:36:25.245Z,39.00
2018-09-30T12:38:53.439Z,38.60
2018-09-30T12:41:21.721Z,38.80
2018-09-30T12:43:49.985Z,38.70
2018-09-30T12:46:18.218Z,38.70
2018-09-30T12:48:46.462Z,39.00
2018-09-30T12:51:14.819Z,38.90
2018-09-30T12:53:43.111Z,38.30
2018-09-30T12:56:11.389Z,38.50
2018-09-30T12:58:40.058Z,38.10
2018-09-30T13:01:08.525Z,37.90
2018-09-30T13:03:36.837Z,37.30
2018-09-30T13:06:05.306Z,37.20
2018-09-30T13:08:33.976Z,36.90
2018-09-30T13:11:02.373Z,37.30
2018-09-30T13:13:31.147Z,37.00
2018-09-30T13:15:59.502Z,37.00
2018-09-30T13:18:27.791Z,36.50
2018-09-30T13:20:56.310Z,36.10
2018-09-30T13:23:24.622Z,36.00
2018-09-30T13:25:53.325Z,36.20
2018-09-30T13:28:21.643Z,36.20
2018-09-30T13:30:50.266Z,36.20
2018-09-30T13:33:18.845Z,36.00
2018-09-30T13:35:47.125Z,36.10
2018-09-30T13:38:15.436Z,35.60
2018-09-30T13:40:43.832Z,35.50
2018-09-30T13:43:12.069Z,35.60
2018-09-30T13:45:40.367Z,35.90
2018-09-30T13:48:08.721Z,35.40
2018-09-30T13:50:37.642Z,35.10
2018-09-30T13:53:06.023Z,35.40
2018-09-30T13:55:35.101Z,35.60
2018-09-30T13:58:03.348Z,34.90
2018-09-30T14:00:31.619Z,35.20
2018-09-30T14:02:59.954Z,35.10
2018-09-30T14:05:28.429Z,35.00
2018-09-30T14:07:56.809Z,34.70
2018-09-30T14:10:25.596Z,35.00
2018-09-30T14:12:53.963Z,34.90
2018-09-30T14:15:22.404Z,34.70
2018-09-30T14:17:50.914Z,34.50
2018-09-30T14:20:19.476Z,34.50
2018-09-30T14:22:47.708Z,34.30
2018-09-30T14:25:16.027Z,33.80
2018-09-30T14:27:44.292Z,33.60
2018-09-30T14:30:12.611Z,33.70
2018-09-30T14:32:40.919Z,33.60
2018-09-30T14:35:09.246Z,33.50
2018-09-30T14:37:38.062Z,33.50
2018-09-30T14:40:06.967Z,33.50
2018-09-30T14:42:35.227Z,33.60
2018-09-30T14:45:03.492Z,33.50
2018-09-30T14:47:31.869Z,33.70
2018-09-30T14:50:00.153Z,33.60
2018-09-30T14:52:28.641Z,33.70
2018-09-30T14:54:58.009Z,33.80
2018-09-30T14:57:26.726Z,33.80
2018-09-30T14:59:55.217Z,34.30
2018-09-30T15:02:23.682Z,33.80
2018-09-30T15:04:52.053Z,33.90
2018-09-30T15:07:20.802Z,33.80
2018-09-30T15:09:49.401Z,34.10
2018-09-30T15:12:17.778Z,33.90
2018-09-30T15:14:46.067Z,33.70
2018-09-30T15:17:14.416Z,34.20
2018-09-30T15:19:42.864Z,34.40
2018-09-30T15:22:11.398Z,34.20
2018-09-30T15:24:39.673Z,34.20
2018-09-30T15:27:07.957Z,34.30
2018-09-30T15:29:36.313Z,34.50
2018-09-30T15:32:04.687Z,34.50
2018-09-30T15:34:33.067Z,34.40
2018-09-30T15:37:01.566Z,34.80
2018-09-30T15:39:29.850Z,35.10
2018-09-30T15:41:58.334Z,35.10
2018-09-30T15:44:27.048Z,35.00
2018-09-30T15:46:55.395Z,35.10
2018-09-30T15:49:24.173Z,35.10
2018-09-30T15:51:52.702Z,35.80
2018-09-30T15:54:21.170Z,35.60
2018-09-30T15:56:49.557Z,35.50
2018-09-30T15:59:17.965Z,35.60
2018-09-30T16:01:46.286Z,35.70
2018-09-30T16:04:14.686Z,35.80
2018-09-30T16:06:43.105Z,35.70
2018-09-30T16:09:11.496Z,35.60
2018-09-30T16:11:39.950Z,35.80
2018-09-30T16:14:08.204Z,35.70
2018-09-30T16:16:36.459Z,36.30
2018-09-30T16:19:04.755Z,35.80
2018-09-30T16:21:33.502Z,35.80
2018-09-30T16:24:01.792Z,35.80
2018-09-30T16:26:30.102Z,36.20
2018-09-30T16:28:58.662Z,36.90
2018-09-30T16:31:27.047Z,36.50
2018-09-30T16:33:55.547Z,36.30
2018-09-30T16:36:23.971Z,36.70
2018-09-30T16:38:52.554Z,36.40
2018-09-30T16:41:21.033Z,36.40
2018-09-30T16:43:49.382Z,36.20
2018-09-30T16:46:17.801Z,36.50
2018-09-30T16:48:47.169Z,36.60
2018-09-30T16:51:15.490Z,36.70
2018-09-30T16:53:43.764Z,37.00
2018-09-30T16:56:12.063Z,37.30
2018-09-30T16:58:40.354Z,37.50
2018-09-30T17:01:08.614Z,37.80
2018-09-30T17:03:37.618Z,38.00
2018-09-30T17:06:05.891Z,38.30
2018-09-30T17:08:34.286Z,38.60
2018-09-30T17:11:02.588Z,39.00
2018-09-30T17:13:31.490Z,39.00
2018-09-30T17:15:59.898Z,39.40
2018-09-30T17:18:28.407Z,39.50
2018-09-30T17:20:57.285Z,39.80
2018-09-30T17:23:25.546Z,40.10
2018-09-30T17:25:54.016Z,40.50
2018-09-30T17:28:22.374Z,40.60
2018-09-30T17:30:50.957Z,41.10
2018-09-30T17:33:19.172Z,41.50
2018-09-30T17:35:47.500Z,42.60
2018-09-30T17:38:15.891Z,43.10
2018-09-30T17:40:44.233Z,43.20
2018-09-30T17:43:12.670Z,43.10
2018-09-30T17:45:41.335Z,42.90
2018-09-30T17:48:09.886Z,43.10
2018-09-30T17:50:38.138Z,43.50
2018-09-30T17:53:06.478Z,43.60
2018-09-30T17:55:35.297Z,43.70
2018-09-30T17:58:03.772Z,43.70
2018-09-30T18:00:32.571Z,43.80
2018-09-30T18:03:01.572Z,44.40
2018-09-30T18:05:29.994Z,44.70
2018-09-30T18:07:58.299Z,45.00
2018-09-30T18:10:26.713Z,45.80
2018-09-30T18:12:54.996Z,46.30
2018-09-30T18:15:23.443Z,46.60
2018-09-30T18:17:51.736Z,46.80
2018-09-30T18:20:20.174Z,47.50
2018-09-30T18:22:48.598Z,47.70
2018-09-30T18:25:17.366Z,48.00
2018-09-30T18:27:47.368Z,48.70
2018-09-30T18:30:19.504Z,49.00
2018-09-30T18:32:48.180Z,49.30
2018-09-30T18:35:18.859Z,50.00
2018-09-30T18:37:51.428Z,50.30
2018-09-30T18:40:19.921Z,50.30
2018-09-30T18:42:48.797Z,49.60
2018-09-30T18:45:17.281Z,49.00
2018-09-30T18:47:57.645Z,49.00
2018-09-30T18:50:26.275Z,49.00
2018-09-30T18:52:55.268Z,48.70
2018-09-30T18:55:23.705Z,48.70
2018-09-30T18:57:52.139Z,48.60
2018-09-30T19:00:20.540Z,48.80
2018-09-30T19:02:49.029Z,48.80
2018-09-30T19:05:17.350Z,48.20
2018-09-30T19:07:45.609Z,48.40
2018-09-30T19:10:14.115Z,48.60
2018-09-30T19:12:42.653Z,48.20
2018-09-30T19:15:11.356Z,47.60
2018-09-30T19:17:39.689Z,47.70
2018-09-30T19:20:09.106Z,47.70
2018-09-30T19:22:37.711Z,47.70
2018-09-30T19:25:06.112Z,47.60
2018-09-30T19:27:34.416Z,47.40
2018-09-30T19:30:03.070Z,47.40
2018-09-30T19:32:31.469Z,47.50
2018-09-30T19:34:59.758Z,47.90
2018-09-30T19:37:28.023Z,48.30
2018-09-30T19:39:56.805Z,49.20
2018-09-30T19:42:25.140Z,49.60
2018-09-30T19:44:53.535Z,50.10
2018-09-30T19:47:21.907Z,50.50
2018-09-30T19:49:50.411Z,51.20
2018-09-30T19:52:18.854Z,51.60
2018-09-30T19:54:47.333Z,52.00
2018-09-30T19:57:15.613Z,52.30
2018-09-30T19:59:43.906Z,52.20
2018-09-30T20:02:12.214Z,52.30
2018-09-30T20:04:40.490Z,52.20
2018-09-30T20:07:08.874Z,52.30
2018-09-30T20:09:37.252Z,51.80
2018-09-30T20:12:05.424Z,51.80
2018-09-30T20:14:34.297Z,51.80
2018-09-30T20:17:02.680Z,51.60
2018-09-30T20:19:31.333Z,51.60
2018-09-30T20:21:59.651Z,51.50
2018-09-30T20:24:28.058Z,51.20
2018-09-30T20:26:56.535Z,51.00
2018-09-30T20:29:24.885Z,51.10
2018-09-30T20:31:53.322Z,51.10
2018-09-30T20:34:21.515Z,50.90
2018-09-30T20:36:49.800Z,50.80
2018-09-30T20:39:18.151Z,50.80
2018-09-30T20:41:46.581Z,51.20
2018-09-30T20:44:14.949Z,51.20
2018-09-30T20:46:43.403Z,51.10
2018-09-30T20:49:11.707Z,51.30
2018-09-30T20:51:40.103Z,51.80
2018-09-30T20:54:08.419Z,51.70
2018-09-30T20:56:36.757Z,51.40
2018-09-30T20:59:05.588Z,51.60
2018-09-30T21:01:33.953Z,51.70
2018-09-30T21:04:02.329Z,51.40
2018-09-30T21:06:32.086Z,51.30
2018-09-30T21:09:00.419Z,51.50
2018-09-30T21:11:28.710Z,51.40
2018-09-30T21:13:57.113Z,51.50
2018-09-30T21:16:25.508Z,51.80
2018-09-30T21:18:53.840Z,51.80
2018-09-30T21:21:22.120Z,51.90
2018-09-30T21:23:50.340Z,52.70
2018-09-30T21:26:18.729Z,52.60
2018-09-30T21:28:47.054Z,53.10
2018-09-30T21:31:15.361Z,53.00
2018-09-30T21:33:43.672Z,53.10
2018-09-30T21:36:12.026Z,53.10
2018-09-30T21:38:40.343Z,53.10
2018-09-30T21:41:08.575Z,53.20
2018-09-30T21:43:36.943Z,53.30
2018-09-30T21:46:05.253Z,53.60
2018-09-30T21:48:33.500Z,53.60
2018-09-30T21:51:01.787Z,54.30
2018-09-30T21:53:30.137Z,54.50
2018-09-30T21:55:58.432Z,54.80
2018-09-30T21:58:26.930Z,54.90
2018-09-30T22:01:01.740Z,55.40
2018-09-30T22:03:30.187Z,56.00
2018-09-30T22:05:58.470Z,56.60
2018-09-30T22:08:26.734Z,57.00
2018-09-30T22:10:55.007Z,57.60
2018-09-30T22:13:23.283Z,58.00
2018-09-30T22:15:51.661Z,58.10
2018-09-30T22:18:19.937Z,57.90
2018-09-30T22:20:48.269Z,57.80
2018-09-30T22:23:16.617Z,57.90
2018-09-30T22:25:44.828Z,58.30
2018-09-30T22:28:13.146Z,58.70
2018-09-30T22:30:41.388Z,58.50
2018-09-30T22:33:09.713Z,58.50
2018-09-30T22:35:37.993Z,58.50
2018-09-30T22:38:06.356Z,58.70
2018-09-30T22:40:34.743Z,58.50
2018-09-30T22:43:03.026Z,58.40
2018-09-30T22:45:31.336Z,58.70
2018-09-30T22:48:00.697Z,58.90
2018-09-30T22:50:28.914Z,58.70
2018-09-30T22:52:57.158Z,58.90
2018-09-30T22:55:25.361Z,58.90
2018-09-30T22:57:53.623Z,58.80
2018-09-30T23:00:22.000Z,59.00
2018-09-30T23:02:50.498Z,58.60
2018-09-30T23:05:25.154Z,58.50
2018-09-30T23:07:53.398Z,58.90
2018-09-30T23:10:21.673Z,58.90
2018-09-30T23:12:49.933Z,58.90
2018-09-30T23:15:18.234Z,59.10
2018-09-30T23:17:46.617Z,58.80
2018-09-30T23:20:18.208Z,58.60
2018-09-30T23:22:46.858Z,58.40
2018-09-30T23:25:15.173Z,58.30
2018-09-30T23:27:43.586Z,58.10
2018-09-30T23:30:12.376Z,58.30
2018-09-30T23:32:40.656Z,58.10
2018-09-30T23:35:09.004Z,59.00
2018-09-30T23:37:37.369Z,58.60
2018-09-30T23:40:05.947Z,58.50
2018-09-30T23:42:34.284Z,58.20
2018-09-30T23:45:02.509Z,58.00
2018-09-30T23:47:30.721Z,57.80
2018-09-30T23:49:59.065Z,57.40
2018-09-30T23:52:27.348Z,57.00
2018-09-30T23:54:55.612Z,56.80
2018-09-30T23:57:23.883Z,56.60
2018-09-30T23:59:52.108Z,56.10
